Time;durP1;ratioP1;P1;durP2;ratioP2;P2;SDS_P1;SDS_P2;PMS_P1;PMS_P2;Temp;Humidity;BMP_temperature;BMP_pressure;BME280_temperature;BME280_humidity;BME280_pressure;Samples;Min_cycle;Max_cycle;Signal;HPM_P1;HPM_P2
2023/10/24 00:01:24;;;;;;;13.60;10.50;;;;;;;7.00;100.00;97613.98;108753;1283;22546;-85
2023/10/24 00:03:52;;;;;;;12.80;10.20;;;;;;;7.05;100.00;97609.48;108885;1283;22595;-85
2023/10/24 00:06:20;;;;;;;15.80;11.80;;;;;;;7.09;100.00;97611.97;109222;1283;22612;-85
2023/10/24 00:08:48;;;;;;;12.00;10.50;;;;;;;7.12;100.00;97611.19;108694;1283;23887;-86
2023/10/24 00:11:15;;;;;;;12.60;10.00;;;;;;;7.15;100.00;97610.52;106601;1283;22537;-84
2023/10/24 00:13:43;;;;;;;15.20;11.30;;;;;;;7.15;100.00;97605.10;106662;1282;23291;-85
2023/10/24 00:16:11;;;;;;;12.20;10.20;;;;;;;7.16;100.00;97601.44;106642;1283;25501;-86
2023/10/24 00:18:40;;;;;;;13.30;9.30;;;;;;;7.16;100.00;97597.84;106646;1276;24221;-85
2023/10/24 00:21:08;;;;;;;12.70;10.00;;;;;;;7.15;100.00;97594.11;106590;1283;25244;-86
2023/10/24 00:23:36;;;;;;;13.70;10.00;;;;;;;7.11;100.00;97598.45;106691;1283;24250;-87
2023/10/24 00:26:04;;;;;;;17.00;11.30;;;;;;;7.04;100.00;97600.92;106694;1283;23151;-87
2023/10/24 00:28:31;;;;;;;13.00;11.30;;;;;;;6.96;100.00;97601.58;106685;1282;24251;-84
2023/10/24 00:31:00;;;;;;;15.50;12.10;;;;;;;6.91;100.00;97601.52;106680;1283;22540;-85
2023/10/24 00:33:28;;;;;;;15.20;12.50;;;;;;;6.85;100.00;97599.53;106577;1283;25362;-85
2023/10/24 00:35:58;;;;;;;17.10;14.20;;;;;;;6.79;100.00;97598.68;106547;1273;22538;-85
2023/10/24 00:38:26;;;;;;;20.70;15.30;;;;;;;6.74;100.00;97598.52;106665;1283;25262;-85
2023/10/24 00:40:54;;;;;;;19.60;15.00;;;;;;;6.68;100.00;97594.22;106680;1284;25341;-84
2023/10/24 00:43:22;;;;;;;18.90;15.40;;;;;;;6.62;100.00;97594.96;106718;1283;23884;-85
2023/10/24 00:45:50;;;;;;;15.50;13.50;;;;;;;6.60;100.00;97600.40;106708;1283;24257;-85
2023/10/24 00:48:19;;;;;;;14.30;12.70;;;;;;;6.58;100.00;97599.33;106563;1283;22539;-85
2023/10/24 00:50:47;;;;;;;13.60;11.80;;;;;;;6.54;100.00;97593.20;106627;1283;24398;-85
2023/10/24 00:53:16;;;;;;;18.30;13.30;;;;;;;6.53;100.00;97591.71;106581;1283;23236;-86
2023/10/24 00:55:44;;;;;;;18.40;12.60;;;;;;;6.54;100.00;97589.77;106736;1283;22564;-86
2023/10/24 00:58:13;;;;;;;14.60;12.20;;;;;;;6.55;100.00;97585.64;106654;1283;22542;-85
2023/10/24 01:00:44;;;;;;;15.70;10.80;;;;;;;6.56;100.00;97583.40;106779;1283;23199;-86
2023/10/24 01:03:12;;;;;;;13.80;10.20;;;;;;;6.57;100.00;97577.13;106698;1283;24334;-86
2023/10/24 01:05:42;;;;;;;12.10;8.80;;;;;;;6.64;100.00;97575.24;106713;1283;22545;-86
2023/10/24 01:08:10;;;;;;;12.50;9.70;;;;;;;6.74;100.00;97566.16;106591;1283;24272;-86
2023/10/24 01:10:39;;;;;;;15.00;9.20;;;;;;;6.88;100.00;97562.61;106610;1283;25335;-86
2023/10/24 01:13:08;;;;;;;13.40;12.00;;;;;;;7.01;100.00;97554.75;107272;1283;22543;-85
2023/10/24 01:15:36;;;;;;;14.30;9.60;;;;;;;7.16;100.00;97553.86;107777;1283;24260;-85
2023/10/24 01:18:05;;;;;;;15.00;11.10;;;;;;;7.26;100.00;97552.36;106647;1283;24893;-85
2023/10/24 01:20:32;;;;;;;14.00;11.30;;;;;;;7.35;100.00;97547.80;106710;1283;23281;-85
2023/10/24 01:23:00;;;;;;;13.30;11.40;;;;;;;7.43;100.00;97543.09;106698;1283;22652;-85
2023/10/24 01:25:29;;;;;;;14.90;12.20;;;;;;;7.48;100.00;97546.89;106547;1283;22577;-85
2023/10/24 01:27:58;;;;;;;14.20;10.90;;;;;;;7.54;100.00;97548.98;106589;1283;25462;-85
2023/10/24 01:30:26;;;;;;;15.20;11.00;;;;;;;7.59;100.00;97558.93;106555;1283;23419;-85
2023/10/24 01:32:54;;;;;;;18.40;11.50;;;;;;;7.58;100.00;97570.09;106592;1283;25246;-85
2023/10/24 01:35:22;;;;;;;16.00;12.20;;;;;;;7.58;100.00;97569.92;106542;1283;24233;-87
2023/10/24 01:37:50;;;;;;;13.00;10.00;;;;;;;7.60;100.00;97569.27;106606;1283;22543;-84
2023/10/24 01:40:18;;;;;;;15.20;11.30;;;;;;;7.61;100.00;97568.13;106487;1283;26760;-85
2023/10/24 01:42:45;;;;;;;15.20;11.40;;;;;;;7.61;100.00;97567.70;106673;1283;24229;-85
2023/10/24 01:45:15;;;;;;;14.00;11.10;;;;;;;7.62;100.00;97567.42;106608;1284;24302;-85
2023/10/24 01:47:43;;;;;;;13.20;10.90;;;;;;;7.59;100.00;97564.71;106679;1283;25203;-85
2023/10/24 01:50:12;;;;;;;14.80;11.40;;;;;;;7.55;100.00;97563.00;106611;1283;22540;-85
2023/10/24 01:52:40;;;;;;;16.20;11.70;;;;;;;7.47;100.00;97562.61;106691;1283;22548;-85
2023/10/24 01:55:08;;;;;;;17.00;11.20;;;;;;;7.40;100.00;97561.73;106545;1283;22546;-85
2023/10/24 01:57:37;;;;;;;23.20;11.40;;;;;;;7.42;100.00;97571.41;106464;1283;24245;-84
2023/10/24 02:00:06;;;;;;;13.70;10.90;;;;;;;7.41;100.00;97574.21;106480;1283;25498;-85
2023/10/24 02:02:39;;;;;;;17.60;12.20;;;;;;;7.37;100.00;97572.06;106596;1283;24844;-84
2023/10/24 02:05:08;;;;;;;14.70;11.50;;;;;;;7.33;100.00;97560.38;107867;1283;23004;-85
2023/10/24 02:07:36;;;;;;;18.20;12.30;;;;;;;7.32;100.00;97548.69;107977;1283;23884;-85
2023/10/24 02:10:05;;;;;;;15.50;13.00;;;;;;;7.33;100.00;97545.59;106530;1283;24371;-85
2023/10/24 02:12:34;;;;;;;18.10;14.70;;;;;;;7.35;100.00;97544.48;106462;1283;22559;-85
2023/10/24 02:15:04;;;;;;;16.00;14.70;;;;;;;7.33;100.00;97536.19;106614;1283;22548;-85
2023/10/24 02:17:33;;;;;;;15.60;12.70;;;;;;;7.28;100.00;97535.40;106488;1283;22534;-86
2023/10/24 02:20:01;;;;;;;17.50;12.40;;;;;;;7.24;100.00;97533.78;106611;1283;22546;-85
2023/10/24 02:22:29;;;;;;;12.80;10.00;;;;;;;7.23;100.00;97531.27;106641;1283;26216;-86
2023/10/24 02:24:57;;;;;;;14.00;11.70;;;;;;;7.26;100.00;97530.27;106625;1283;25313;-85
2023/10/24 02:27:25;;;;;;;16.80;10.70;;;;;;;7.32;100.00;97534.50;106601;1283;24072;-86
2023/10/24 02:29:54;;;;;;;14.20;10.60;;;;;;;7.37;100.00;97535.91;106514;1283;24382;-86
2023/10/24 02:32:22;;;;;;;15.60;10.40;;;;;;;7.43;100.00;97536.66;106575;1283;22533;-86
2023/10/24 02:34:50;;;;;;;17.20;10.60;;;;;;;7.47;100.00;97522.84;106805;1283;22548;-86
2023/10/24 02:37:18;;;;;;;14.50;10.00;;;;;;;7.51;100.00;97517.90;106572;1260;25414;-86
2023/10/24 02:39:46;;;;;;;12.50;9.10;;;;;;;7.62;100.00;97515.63;106636;1283;22556;-86
2023/10/24 02:42:15;;;;;;;14.40;9.80;;;;;;;7.76;100.00;97512.43;106646;1283;22576;-85
2023/10/24 02:44:42;;;;;;;11.20;9.00;;;;;;;7.89;100.00;97503.66;106689;1283;24285;-86
2023/10/24 02:47:10;;;;;;;13.30;8.80;;;;;;;8.00;100.00;97495.39;106784;1283;22582;-85
2023/10/24 02:49:38;;;;;;;11.90;7.90;;;;;;;8.13;100.00;97490.84;107208;1283;23060;-85
2023/10/24 02:52:07;;;;;;;11.70;9.10;;;;;;;8.26;100.00;97492.90;107544;1283;22545;-85
2023/10/24 02:54:35;;;;;;;10.20;8.60;;;;;;;8.35;100.00;97496.29;107131;1283;22535;-85
2023/10/24 02:57:03;;;;;;;12.60;9.10;;;;;;;8.41;100.00;97498.64;106843;1283;22559;-86
2023/10/24 02:59:31;;;;;;;11.90;9.90;;;;;;;8.46;100.00;97502.16;106563;1283;25247;-86
2023/10/24 03:01:59;;;;;;;12.90;9.70;;;;;;;8.49;100.00;97495.19;106456;1283;22596;-86
2023/10/24 03:04:27;;;;;;;12.20;9.70;;;;;;;8.51;100.00;97494.50;106469;1283;24095;-85
2023/10/24 03:06:55;;;;;;;12.50;10.40;;;;;;;8.51;100.00;97485.70;106424;1283;22675;-86
2023/10/24 03:09:23;;;;;;;12.80;9.60;;;;;;;8.50;100.00;97483.41;106434;1283;25300;-86
2023/10/24 03:11:51;;;;;;;12.20;8.50;;;;;;;8.50;100.00;97489.16;106633;1283;22591;-86
2023/10/24 03:14:19;;;;;;;13.20;9.70;;;;;;;8.53;100.00;97489.21;106653;1283;22639;-85
2023/10/24 03:16:48;;;;;;;11.90;8.60;;;;;;;8.55;100.00;97492.44;106682;1283;24256;-86
2023/10/24 03:19:17;;;;;;;11.70;8.80;;;;;;;8.59;100.00;97502.95;106695;1283;23279;-85
2023/10/24 03:21:45;;;;;;;12.30;10.00;;;;;;;8.59;100.00;97503.92;106712;1283;22596;-87
2023/10/24 03:24:13;;;;;;;12.50;9.30;;;;;;;8.57;100.00;97503.80;106544;1283;26598;-87
2023/10/24 03:26:41;;;;;;;14.60;11.80;;;;;;;8.54;100.00;97502.34;106615;1278;22566;-86
2023/10/24 03:29:09;;;;;;;19.70;11.70;;;;;;;8.52;100.00;97507.27;106568;1283;22558;-86
2023/10/24 03:31:37;;;;;;;13.20;10.80;;;;;;;8.51;100.00;97503.78;106596;1283;22667;-86
2023/10/24 03:34:07;;;;;;;13.50;9.50;;;;;;;8.53;100.00;97501.55;106542;1283;23013;-85
2023/10/24 03:36:35;;;;;;;11.40;9.80;;;;;;;8.54;100.00;97499.87;106770;1283;22540;-86
2023/10/24 03:39:03;;;;;;;13.10;10.30;;;;;;;8.55;100.00;97497.28;107262;1283;22547;-86
2023/10/24 03:41:31;;;;;;;13.50;10.60;;;;;;;8.54;100.00;97496.17;108822;1283;22871;-85
2023/10/24 03:43:59;;;;;;;15.20;10.30;;;;;;;8.52;100.00;97483.54;107959;1283;22575;-85
2023/10/24 03:46:27;;;;;;;10.80;8.70;;;;;;;8.51;100.00;97479.89;108107;1283;22488;-86
2023/10/24 03:48:57;;;;;;;9.40;7.50;;;;;;;8.54;100.00;97476.98;106974;1283;24307;-86
2023/10/24 03:51:25;;;;;;;13.90;8.50;;;;;;;8.58;100.00;97480.38;106780;1283;22557;-86
2023/10/24 03:53:53;;;;;;;9.40;7.50;;;;;;;8.64;100.00;97480.63;106651;1283;25564;-86
2023/10/24 03:56:21;;;;;;;10.10;7.80;;;;;;;8.69;100.00;97480.83;106714;1283;22549;-86
2023/10/24 03:58:49;;;;;;;14.20;8.10;;;;;;;8.70;100.00;97475.96;106698;1283;22569;-86
2023/10/24 04:01:17;;;;;;;11.80;8.20;;;;;;;8.69;100.00;97468.68;106553;1283;24356;-86
2023/10/24 04:03:45;;;;;;;9.80;8.00;;;;;;;8.67;100.00;97453.77;106557;1283;24317;-85
2023/10/24 04:06:14;;;;;;;11.70;8.50;;;;;;;8.67;100.00;97448.56;106525;1280;24720;-88
2023/10/24 04:08:42;;;;;;;10.20;6.90;;;;;;;8.66;100.00;97448.58;106487;1283;25398;-87
2023/10/24 04:11:15;;;;;;;13.30;8.70;;;;;;;8.66;100.00;97454.93;106540;1283;22537;-86
2023/10/24 04:13:45;;;;;;;14.00;9.00;;;;;;;8.65;100.00;97466.11;106683;1283;22612;-86
2023/10/24 04:16:13;;;;;;;11.70;8.20;;;;;;;8.67;100.00;97474.25;106645;1283;22773;-86
2023/10/24 04:18:44;;;;;;;12.80;9.10;;;;;;;8.67;100.00;97483.32;106625;1283;22537;-86
2023/10/24 04:21:16;;;;;;;10.50;8.80;;;;;;;8.68;100.00;97488.89;106566;1283;24223;-86
2023/10/24 04:23:44;;;;;;;12.00;8.50;;;;;;;8.66;100.00;97489.41;106688;1283;22541;-86
2023/10/24 04:26:12;;;;;;;13.60;10.60;;;;;;;8.63;100.00;97484.45;106696;1283;22596;-85
2023/10/24 04:28:40;;;;;;;11.40;8.80;;;;;;;8.61;100.00;97479.98;106641;1279;25249;-86
2023/10/24 04:31:10;;;;;;;13.40;7.60;;;;;;;8.59;100.00;97472.36;106493;1283;24235;-86
2023/10/24 04:33:40;;;;;;;10.50;7.50;;;;;;;8.57;100.00;97465.01;106533;1283;22860;-86
2023/10/24 04:36:12;;;;;;;13.80;8.60;;;;;;;8.57;100.00;97454.70;106558;1283;25701;-86
2023/10/24 04:38:40;;;;;;;11.50;8.90;;;;;;;8.55;100.00;97451.90;106551;1282;22550;-86
2023/10/24 04:41:08;;;;;;;14.40;9.50;;;;;;;8.52;100.00;97451.25;106606;1282;22661;-85
2023/10/24 04:43:36;;;;;;;14.10;9.50;;;;;;;8.49;100.00;97451.56;106635;1282;22541;-85
2023/10/24 04:46:04;;;;;;;11.10;9.20;;;;;;;8.49;100.00;97442.81;106614;1282;22577;-86
2023/10/24 04:48:32;;;;;;;16.30;8.90;;;;;;;8.48;100.00;97442.67;106631;1282;23145;-86
2023/10/24 04:51:00;;;;;;;15.40;10.10;;;;;;;8.47;100.00;97438.30;106421;1282;22535;-86
2023/10/24 04:53:28;;;;;;;14.20;10.00;;;;;;;8.45;100.00;97431.04;106673;1282;22764;-86
2023/10/24 04:55:55;;;;;;;15.60;11.40;;;;;;;8.39;100.00;97431.61;106741;1282;25338;-85
2023/10/24 04:58:23;;;;;;;16.00;9.70;;;;;;;8.39;100.00;97420.16;106535;1282;23946;-85
2023/10/24 05:00:52;;;;;;;12.20;9.20;;;;;;;8.41;100.00;97414.28;106536;1282;24097;-85
2023/10/24 05:03:20;;;;;;;12.20;9.10;;;;;;;8.44;100.00;97416.11;106566;1282;22542;-86
2023/10/24 05:05:49;;;;;;;13.80;8.70;;;;;;;8.44;100.00;97413.68;106697;1282;22624;-85
2023/10/24 05:08:16;;;;;;;12.20;9.40;;;;;;;8.46;100.00;97406.95;107826;1282;22551;-86
2023/10/24 05:10:47;;;;;;;13.40;8.90;;;;;;;8.44;100.00;97401.45;106893;1282;22579;-86
2023/10/24 05:13:17;;;;;;;11.30;8.90;;;;;;;8.44;100.00;97412.62;106642;1282;22644;-85
2023/10/24 05:15:45;;;;;;;14.10;9.20;;;;;;;8.43;100.00;97422.67;106793;1282;22567;-85
2023/10/24 05:18:14;;;;;;;12.20;10.00;;;;;;;8.43;100.00;97424.73;106565;1282;22545;-86
2023/10/24 05:20:42;;;;;;;12.30;10.70;;;;;;;8.39;100.00;97427.14;106634;1282;25484;-86
2023/10/24 05:23:10;;;;;;;16.80;9.50;;;;;;;8.36;100.00;97439.04;106695;1282;22592;-86
2023/10/24 05:25:41;;;;;;;11.60;9.90;;;;;;;8.34;100.00;97445.35;106864;1279;22565;-87
2023/10/24 05:28:11;;;;;;;11.30;8.50;;;;;;;8.35;100.00;97452.98;106832;1282;22691;-86
2023/10/24 05:30:39;;;;;;;13.60;9.30;;;;;;;8.36;100.00;97477.07;106702;1282;22488;-86
2023/10/24 05:33:07;;;;;;;16.00;10.70;;;;;;;8.33;100.00;97496.48;106787;1282;24728;-87
2023/10/24 05:35:35;;;;;;;17.40;10.80;;;;;;;8.27;100.00;97506.09;106873;1282;22578;-87
2023/10/24 05:38:03;;;;;;;12.30;10.60;;;;;;;8.21;100.00;97504.89;106658;1282;23135;-86
2023/10/24 05:40:31;;;;;;;13.90;10.00;;;;;;;8.22;100.00;97499.63;106710;1282;22566;-86
2023/10/24 05:42:59;;;;;;;14.30;11.20;;;;;;;8.25;100.00;97500.10;106730;1282;22748;-86
2023/10/24 05:45:26;;;;;;;16.60;10.00;;;;;;;8.28;100.00;97492.92;106726;1282;24212;-87
2023/10/24 05:47:54;;;;;;;13.30;10.30;;;;;;;8.31;100.00;97484.77;106738;1282;24308;-87
2023/10/24 05:50:24;;;;;;;14.00;10.60;;;;;;;8.29;100.00;97479.38;106667;1282;25501;-86
2023/10/24 05:52:52;;;;;;;13.80;10.60;;;;;;;8.29;100.00;97469.70;106594;1282;23945;-85
2023/10/24 05:55:20;;;;;;;16.20;13.30;;;;;;;8.31;100.00;97460.92;106714;1282;22541;-87
2023/10/24 05:57:48;;;;;;;18.80;14.60;;;;;;;8.33;100.00;97460.58;106611;1282;22663;-86
2023/10/24 06:00:16;;;;;;;17.50;10.60;;;;;;;8.36;100.00;97451.89;106596;1282;22633;-86
2023/10/24 06:02:45;;;;;;;17.20;11.30;;;;;;;8.38;100.00;97439.89;106593;1282;22562;-86
2023/10/24 06:05:13;;;;;;;12.30;8.90;;;;;;;8.38;100.00;97421.94;106601;1282;24215;-87
2023/10/24 06:07:41;;;;;;;9.60;7.80;;;;;;;8.42;100.00;97409.59;106554;1282;22805;-86
2023/10/24 06:10:09;;;;;;;13.40;8.70;;;;;;;8.50;100.00;97404.98;106675;1282;25349;-87
2023/10/24 06:12:37;;;;;;;13.30;7.50;;;;;;;8.64;100.00;97401.55;106645;1282;22559;-87
2023/10/24 06:15:06;;;;;;;11.70;9.20;;;;;;;8.81;100.00;97404.23;106650;1282;25590;-87
2023/10/24 06:17:35;;;;;;;15.10;10.90;;;;;;;8.94;100.00;97412.23;106646;1282;24241;-86
2023/10/24 06:20:04;;;;;;;12.10;10.80;;;;;;;9.01;100.00;97419.92;106625;1282;22552;-86
2023/10/24 06:22:32;;;;;;;13.60;9.70;;;;;;;9.06;100.00;97422.13;106742;1282;24238;-87
2023/10/24 06:25:00;;;;;;;16.80;9.60;;;;;;;9.10;100.00;97419.36;106674;1282;25386;-86
2023/10/24 06:27:28;;;;;;;10.50;9.30;;;;;;;9.17;100.00;97430.00;106810;1282;24281;-86
2023/10/24 06:29:57;;;;;;;13.40;10.00;;;;;;;9.24;100.00;97437.87;106585;1282;22869;-86
2023/10/24 06:32:25;;;;;;;11.30;10.00;;;;;;;9.31;100.00;97447.74;106632;1274;22541;-85
2023/10/24 06:34:53;;;;;;;14.30;9.40;;;;;;;9.36;100.00;97449.02;106742;1282;23168;-86
2023/10/24 06:37:21;;;;;;;13.60;8.30;;;;;;;9.40;100.00;97447.98;106726;1282;22603;-86
2023/10/24 06:39:49;;;;;;;15.80;8.10;;;;;;;9.46;100.00;97440.65;106701;1282;22562;-86
2023/10/24 06:42:17;;;;;;;8.80;6.80;;;;;;;9.55;100.00;97441.73;106705;1282;23952;-86
2023/10/24 06:44:45;;;;;;;11.50;8.50;;;;;;;9.67;100.00;97441.46;106750;1282;23847;-86
2023/10/24 06:47:12;;;;;;;11.60;8.10;;;;;;;9.77;100.00;97444.69;106643;1282;22567;-86
2023/10/24 06:49:40;;;;;;;12.70;8.80;;;;;;;9.84;100.00;97445.66;106704;1282;25246;-86
2023/10/24 06:52:09;;;;;;;13.40;9.10;;;;;;;9.90;100.00;97435.19;106660;1282;22481;-85
2023/10/24 06:54:37;;;;;;;13.20;9.50;;;;;;;9.94;100.00;97430.98;106685;1282;22540;-85
2023/10/24 06:57:05;;;;;;;13.10;8.40;;;;;;;9.99;100.00;97424.89;106731;1282;25320;-86
2023/10/24 06:59:32;;;;;;;11.90;8.30;;;;;;;10.03;100.00;97416.95;106638;1282;22640;-86
2023/10/24 07:02:00;;;;;;;11.70;9.30;;;;;;;10.03;100.00;97410.48;106456;1282;24202;-85
2023/10/24 07:04:28;;;;;;;12.40;8.00;;;;;;;10.01;100.00;97415.41;106653;1275;24247;-85
2023/10/24 07:06:56;;;;;;;12.20;8.00;;;;;;;10.00;100.00;97409.48;106698;1282;22616;-86
2023/10/24 07:09:24;;;;;;;10.60;7.70;;;;;;;9.97;100.00;97421.28;106454;1282;22626;-85
2023/10/24 07:11:52;;;;;;;11.40;7.60;;;;;;;10.00;100.00;97430.26;106644;1279;22583;-86
2023/10/24 07:14:20;;;;;;;12.50;8.60;;;;;;;10.06;100.00;97432.54;106857;1261;22536;-85
2023/10/24 07:16:50;;;;;;;31.70;9.10;;;;;;;10.14;100.00;97412.27;106744;1282;22774;-86
2023/10/24 07:19:20;;;;;;;15.70;7.40;;;;;;;10.23;100.00;97397.94;107762;1282;25939;-86
2023/10/24 07:21:48;;;;;;;11.10;7.30;;;;;;;10.31;100.00;97394.52;108238;1282;22550;-86
2023/10/24 07:24:16;;;;;;;12.10;6.10;;;;;;;10.44;100.00;97390.56;108538;1282;22536;-86
2023/10/24 07:26:44;;;;;;;10.10;6.70;;;;;;;10.59;100.00;97381.98;107332;1259;22581;-85
2023/10/24 07:29:11;;;;;;;10.40;5.70;;;;;;;10.75;100.00;97385.49;106676;1282;24338;-86
2023/10/24 07:31:39;;;;;;;9.20;6.50;;;;;;;10.87;100.00;97392.00;106795;1282;22564;-87
2023/10/24 07:34:07;;;;;;;13.10;7.40;;;;;;;10.97;100.00;97398.23;106715;1282;25235;-86
2023/10/24 07:36:35;;;;;;;11.50;8.00;;;;;;;11.07;100.00;97394.88;106566;1282;22663;-86
2023/10/24 07:39:03;;;;;;;12.40;7.60;;;;;;;11.18;100.00;97390.02;106634;1282;24317;-86
2023/10/24 07:41:31;;;;;;;10.50;7.50;;;;;;;11.27;100.00;97389.70;106605;1282;24315;-86
2023/10/24 07:43:59;;;;;;;14.70;9.10;;;;;;;11.31;100.00;97382.61;106616;1282;23692;-86
2023/10/24 07:46:27;;;;;;;12.30;8.40;;;;;;;11.37;100.00;97379.21;106485;1281;25439;-86
2023/10/24 07:48:57;;;;;;;12.80;8.00;;;;;;;11.42;100.00;97378.67;106593;1282;22527;-86
2023/10/24 07:51:31;;;;;;;15.50;7.40;;;;;;;11.51;100.00;97381.22;106547;1282;26589;-86
2023/10/24 07:53:59;;;;;;;13.00;6.90;;;;;;;11.60;100.00;97377.05;106590;1282;22593;-86
2023/10/24 07:56:27;;;;;;;10.50;6.40;;;;;;;11.70;100.00;97374.60;107532;1282;22541;-85
2023/10/24 07:58:55;;;;;;;9.60;5.90;;;;;;;11.78;100.00;97375.75;107229;1282;22550;-86
2023/10/24 08:01:23;;;;;;;10.10;7.00;;;;;;;11.88;100.00;97368.05;106879;1279;24314;-86
2023/10/24 08:03:51;;;;;;;11.70;7.20;;;;;;;11.95;100.00;97355.73;106659;1279;22639;-85
2023/10/24 08:06:19;;;;;;;15.60;9.00;;;;;;;11.99;100.00;97341.80;106757;1282;22557;-86
2023/10/24 08:08:47;;;;;;;12.10;8.40;;;;;;;12.08;100.00;97330.54;106774;1282;22712;-86
2023/10/24 08:11:15;;;;;;;8.50;6.70;;;;;;;12.21;100.00;97320.70;106756;1282;25411;-86
2023/10/24 08:13:43;;;;;;;12.50;5.90;;;;;;;12.28;100.00;97311.27;106643;1282;24226;-85
2023/10/24 08:16:11;;;;;;;9.50;6.20;;;;;;;12.33;100.00;97302.61;106690;1282;22824;-85
2023/10/24 08:18:40;;;;;;;8.10;5.60;;;;;;;12.41;100.00;97299.81;106805;1282;22553;-87
2023/10/24 08:21:11;;;;;;;8.30;5.30;;;;;;;12.48;100.00;97295.33;106858;1282;25457;-86
2023/10/24 08:23:39;;;;;;;11.30;5.50;;;;;;;12.57;100.00;97298.09;106946;1280;22637;-85
2023/10/24 08:26:07;;;;;;;7.80;5.70;;;;;;;12.68;100.00;97308.39;107124;1282;23917;-85
2023/10/24 08:28:36;;;;;;;8.30;5.70;;;;;;;12.80;100.00;97318.28;106698;1282;22671;-86
2023/10/24 08:31:04;;;;;;;13.80;5.30;;;;;;;12.86;100.00;97321.45;106743;1282;23477;-86
2023/10/24 08:33:33;;;;;;;7.10;5.60;;;;;;;12.93;100.00;97319.02;106649;1282;22572;-86
2023/10/24 08:36:01;;;;;;;10.20;6.20;;;;;;;12.99;100.00;97324.02;106685;1282;22571;-85
2023/10/24 08:38:29;;;;;;;7.50;5.70;;;;;;;13.08;100.00;97324.92;106661;1282;22594;-86
2023/10/24 08:40:57;;;;;;;14.40;5.50;;;;;;;13.21;100.00;97331.83;106678;1268;23942;-85
2023/10/24 08:43:25;;;;;;;7.70;6.00;;;;;;;13.36;100.00;97335.50;106558;1282;22531;-85
2023/10/24 08:45:54;;;;;;;9.70;6.10;;;;;;;13.50;100.00;97337.61;106544;1282;22552;-86
2023/10/24 08:48:22;;;;;;;10.90;6.10;;;;;;;13.65;100.00;97334.77;106505;1282;25371;-86
2023/10/24 08:50:50;;;;;;;10.30;5.80;;;;;;;13.81;100.00;97334.41;106671;1282;25224;-85
2023/10/24 08:53:18;;;;;;;9.90;6.50;;;;;;;13.91;99.76;97331.64;106648;1282;22546;-86
2023/10/24 08:55:57;;;;;;;8.80;6.60;;;;;;;13.94;99.22;97329.06;106571;1271;22600;-84
2023/10/24 08:58:28;;;;;;;10.90;6.50;;;;;;;14.02;99.65;97321.64;106685;1282;22597;-86
2023/10/24 09:00:59;;;;;;;10.00;6.80;;;;;;;14.09;98.62;97317.56;106774;1282;22653;-86
2023/10/24 09:03:28;;;;;;;11.10;8.00;;;;;;;14.14;98.85;97322.52;106609;1282;22607;-86
2023/10/24 09:05:57;;;;;;;10.50;7.60;;;;;;;14.18;98.77;97323.83;106776;1282;22650;-86
2023/10/24 09:08:25;;;;;;;9.00;6.90;;;;;;;14.22;99.05;97319.84;106771;1282;22535;-86
2023/10/24 09:10:55;;;;;;;10.30;7.30;;;;;;;14.22;97.60;97319.92;106826;1282;25233;-87
2023/10/24 09:13:26;;;;;;;9.20;7.00;;;;;;;14.18;97.30;97324.60;106553;1282;22659;-86
2023/10/24 09:16:05;;;;;;;10.50;7.90;;;;;;;14.20;97.19;97321.66;106747;1279;24321;-86
2023/10/24 09:18:36;;;;;;;9.70;7.80;;;;;;;14.24;97.10;97314.73;106647;1282;24275;-85
2023/10/24 09:21:09;;;;;;;10.30;7.60;;;;;;;14.27;96.42;97298.27;106851;1282;22529;-85
2023/10/24 09:23:37;;;;;;;10.10;7.70;;;;;;;14.28;96.04;97290.88;106811;1282;25486;-85
2023/10/24 09:26:07;;;;;;;9.20;7.20;;;;;;;14.33;95.42;97279.02;106772;1282;24198;-85
2023/10/24 09:28:36;;;;;;;13.10;6.60;;;;;;;14.38;95.82;97281.83;106740;1273;22540;-85
2023/10/24 09:31:04;;;;;;;10.20;7.10;;;;;;;14.50;95.67;97286.15;106828;1282;25530;-86
2023/10/24 09:33:33;;;;;;;10.40;6.40;;;;;;;14.59;94.70;97287.46;106828;1282;25050;-86
2023/10/24 09:36:01;;;;;;;11.10;7.10;;;;;;;14.64;95.58;97289.49;106918;1282;24195;-86
2023/10/24 09:38:45;;;;;;;10.30;7.20;;;;;;;14.71;95.05;97293.73;106742;1282;24223;-86
2023/10/24 09:41:13;;;;;;;11.30;7.50;;;;;;;14.76;94.50;97290.86;106817;1282;24245;-86
2023/10/24 09:43:47;;;;;;;12.30;6.80;;;;;;;14.75;94.94;97286.11;106828;1282;23476;-86
2023/10/24 09:46:21;;;;;;;10.70;7.40;;;;;;;14.83;94.08;97291.02;106734;1282;22738;-85
2023/10/24 09:48:50;;;;;;;10.60;6.50;;;;;;;14.91;94.04;97293.70;106611;1282;159117;-86
2023/10/24 09:51:19;;;;;;;12.90;7.60;;;;;;;14.97;93.89;97292.36;106689;1273;22720;-85
2023/10/24 09:53:49;;;;;;;13.30;8.00;;;;;;;15.02;93.58;97291.95;106757;1282;25495;-84
2023/10/24 09:56:19;;;;;;;10.90;7.10;;;;;;;15.10;93.34;97285.90;106639;1281;22530;-84
2023/10/24 09:58:47;;;;;;;11.20;7.20;;;;;;;15.24;93.68;97271.11;106840;1282;22591;-85
2023/10/24 10:01:18;;;;;;;13.60;7.20;;;;;;;15.42;93.53;97265.89;106754;1271;25377;-85
2023/10/24 10:03:47;;;;;;;9.40;7.10;;;;;;;15.55;92.20;97267.63;106730;1282;25090;-86
2023/10/24 10:06:17;;;;;;;11.60;7.30;;;;;;;15.62;91.34;97259.92;106777;1282;24272;-86
2023/10/24 10:08:59;;;;;;;12.70;7.50;;;;;;;15.80;93.03;97245.98;106933;1283;22533;-86
2023/10/24 10:11:31;;;;;;;13.90;6.80;;;;;;;15.99;91.11;97247.70;107331;1282;22976;-87
2023/10/24 10:14:24;;;;;;;12.80;6.30;;;;;;;16.11;91.14;97242.98;106737;1282;23508;-87
2023/10/24 10:17:20;;;;;;;8.60;6.50;;;;;;;16.22;90.26;97237.78;106748;1282;22657;-87
2023/10/24 10:20:09;;;;;;;13.60;7.40;;;;;;;16.35;91.17;97224.83;106728;1282;24601;-86
2023/10/24 10:22:55;;;;;;;11.10;6.20;;;;;;;16.47;91.52;97211.73;106654;1282;22734;-86
2023/10/24 10:25:58;;;;;;;10.40;6.40;;;;;;;16.52;90.35;97203.85;106655;1282;22553;-86
2023/10/24 10:28:42;;;;;;;11.50;5.90;;;;;;;16.50;88.71;97194.24;106691;1282;23087;-86
2023/10/24 10:31:19;;;;;;;9.60;6.60;;;;;;;16.41;89.02;97185.80;106672;1282;24268;-86
2023/10/24 10:34:09;;;;;;;8.70;6.10;;;;;;;16.44;89.26;97184.95;106632;1282;22546;-86
2023/10/24 10:36:39;;;;;;;14.10;6.50;;;;;;;16.48;89.11;97178.27;106680;1282;26563;-86
2023/10/24 10:39:10;;;;;;;9.40;5.80;;;;;;;16.53;88.51;97176.73;106832;1282;24878;-84
2023/10/24 10:42:03;;;;;;;13.10;5.50;;;;;;;16.60;88.45;97175.73;106729;1282;23894;-84
2023/10/24 10:44:42;;;;;;;9.50;5.70;;;;;;;16.72;87.52;97175.83;106715;1282;22543;-85
2023/10/24 10:47:14;;;;;;;8.10;5.70;;;;;;;16.76;86.97;97168.15;106888;1282;22513;-84
2023/10/24 10:49:44;;;;;;;7.90;5.70;;;;;;;16.80;87.61;97162.27;107237;1282;24294;-86
2023/10/24 10:52:34;;;;;;;6.00;5.00;;;;;;;16.88;87.55;97161.66;107744;1283;22531;-85
2023/10/24 10:55:32;;;;;;;10.30;5.50;;;;;;;16.96;86.81;97162.20;107999;1282;22631;-85
2023/10/24 10:58:14;;;;;;;8.60;6.10;;;;;;;17.13;86.85;97161.92;107772;1282;22571;-85
2023/10/24 11:00:54;;;;;;;8.60;5.80;;;;;;;17.40;87.51;97148.33;106719;1283;24565;-84
2023/10/24 11:03:42;;;;;;;8.70;5.60;;;;;;;17.74;86.83;97139.13;106754;1282;22548;-84
2023/10/24 11:06:14;;;;;;;8.60;5.40;;;;;;;18.05;86.56;97141.44;106718;1283;25482;-84
2023/10/24 11:08:48;;;;;;;9.80;4.80;;;;;;;18.31;86.23;97143.14;106680;1282;23201;-84
2023/10/24 11:11:19;;;;;;;;;;;;;;;18.54;84.47;97137.78;106770;1282;22551;-84
2023/10/24 11:13:48;;;;;;;9.50;5.10;;;;;;;18.66;84.17;97124.52;106864;1283;24265;-84
2023/10/24 11:16:17;;;;;;;9.30;4.30;;;;;;;18.72;81.75;97129.76;108742;1282;22552;-83
2023/10/24 11:19:05;;;;;;;9.00;5.00;;;;;;;18.76;81.54;97132.79;107522;1282;25725;-85
2023/10/24 11:21:33;;;;;;;6.00;3.80;;;;;;;18.89;82.29;97133.95;106663;1259;22569;-84
2023/10/24 11:24:01;;;;;;;8.40;4.30;;;;;;;19.02;81.96;97132.88;106652;1282;22532;-84
2023/10/24 11:26:29;;;;;;;8.70;5.80;;;;;;;19.13;80.75;97123.08;106702;1282;25548;-85